Time;durP1;ratioP1;P1;durP2;ratioP2;P2;SDS_P1;SDS_P2;PMS_P1;PMS_P2;Temp;Humidity;BMP_temperature;BMP_pressure;BME280_temperature;BME280_humidity;BME280_pressure;Samples;Min_cycle;Max_cycle;Signal;HPM_P1;HPM_P2
2022/12/21 00:00:16;;;;;;;36.72;15.25;;;;;;;-1.69;62.94;94859.59;6139648;23;19997;-83
2022/12/21 00:02:42;;;;;;;43.53;14.20;;;;;;;-1.66;62.50;94863.59;6165648;23;20001;-84
2022/12/21 00:05:08;;;;;;;36.97;14.93;;;;;;;-1.65;62.15;94859.97;6165568;23;20165;-84
2022/12/21 00:07:33;;;;;;;40.80;14.25;;;;;;;-1.68;62.20;94863.00;6139380;23;20009;-84
2022/12/21 00:09:59;;;;;;;37.03;15.63;;;;;;;-1.68;62.09;94858.56;6139441;23;20232;-83
2022/12/21 00:12:24;;;;;;;41.00;16.65;;;;;;;-1.68;62.86;94849.94;6165386;23;20001;-84
2022/12/21 00:14:50;;;;;;;37.30;15.13;;;;;;;-1.66;62.76;94855.75;6165361;23;20005;-81
2022/12/21 00:17:16;;;;;;;46.47;15.77;;;;;;;-1.67;62.91;94864.59;6165311;23;20009;-81
2022/12/21 00:19:43;;;;;;;38.70;16.40;;;;;;;-1.67;63.00;94870.66;6165240;23;20371;-80
2022/12/21 00:22:09;;;;;;;54.80;18.05;;;;;;;-1.68;63.11;94858.56;6139184;23;19998;-80
2022/12/21 00:24:35;;;;;;;51.67;19.75;;;;;;;-1.71;63.17;94859.00;6139316;23;20006;-80
2022/12/21 00:27:01;;;;;;;46.88;17.63;;;;;;;-1.73;63.37;94855.00;6165053;23;20005;-80
2022/12/21 00:29:26;;;;;;;45.22;17.65;;;;;;;-1.74;63.63;94850.78;6165144;23;20001;-81
2022/12/21 00:31:53;;;;;;;53.80;20.08;;;;;;;-1.75;63.65;94857.00;6165039;23;19993;-80
2022/12/21 00:34:19;;;;;;;44.97;17.63;;;;;;;-1.74;63.58;94859.44;6165002;23;20354;-80
2022/12/21 00:36:46;;;;;;;47.30;17.63;;;;;;;-1.75;63.62;94855.22;6165130;23;20003;-80
2022/12/21 00:39:18;;;;;;;44.83;16.33;;;;;;;-1.77;63.96;94846.78;6165071;23;20013;-81
2022/12/21 00:41:43;;;;;;;39.17;16.15;;;;;;;-1.79;63.96;94855.84;6165032;23;20021;-80
2022/12/21 00:44:09;;;;;;;45.67;17.35;;;;;;;-1.80;64.03;94854.25;6165422;23;20128;-80
2022/12/21 00:46:35;;;;;;;45.67;15.65;;;;;;;-1.83;64.29;94843.22;6138822;23;20314;-80
2022/12/21 00:49:04;;;;;;;36.20;15.43;;;;;;;-1.83;64.47;94851.06;6138967;23;20012;-80
2022/12/21 00:51:31;;;;;;;33.72;14.10;;;;;;;-1.82;64.66;94836.94;6164890;23;19998;-80
2022/12/21 00:53:58;;;;;;;38.40;14.20;;;;;;;-1.82;64.47;94830.94;6164627;23;20188;-80
2022/12/21 00:56:24;;;;;;;34.85;14.85;;;;;;;-1.86;64.74;94819.31;6165068;23;20056;-80
2022/12/21 00:58:50;;;;;;;37.92;13.52;;;;;;;-1.86;64.57;94809.66;6138932;23;20001;-80
2022/12/21 01:01:19;;;;;;;30.08;13.82;;;;;;;-1.87;64.40;94821.13;6164526;23;20002;-80
2022/12/21 01:03:44;;;;;;;34.65;15.15;;;;;;;-1.85;64.73;94810.47;6164855;23;20013;-80
2022/12/21 01:06:22;;;;;;;38.08;15.93;;;;;;;-1.85;64.13;94811.25;6165035;23;20014;-80
2022/12/21 01:08:48;;;;;;;35.92;16.52;;;;;;;-1.87;64.53;94812.50;6164930;23;20189;-80
2022/12/21 01:11:16;;;;;;;38.35;16.80;;;;;;;-1.91;64.92;94812.09;6164734;23;20056;-80
2022/12/21 01:13:42;;;;;;;41.50;17.75;;;;;;;-1.91;64.68;94809.50;6164761;23;19997;-81
2022/12/21 01:16:15;;;;;;;37.63;15.80;;;;;;;-1.94;65.20;94817.75;6164831;23;20083;-80
2022/12/21 01:18:40;;;;;;;35.65;15.23;;;;;;;-1.97;65.37;94807.72;6163269;23;20008;-81
2022/12/21 01:21:06;;;;;;;34.28;15.02;;;;;;;-1.97;65.25;94814.75;6164762;23;20002;-80
2022/12/21 01:23:31;;;;;;;43.95;15.15;;;;;;;-1.99;65.49;94814.16;6138619;23;20201;-81
2022/12/21 01:25:57;;;;;;;30.75;13.60;;;;;;;-1.98;65.45;94824.41;6138680;23;20013;-80
2022/12/21 01:28:22;;;;;;;34.55;14.07;;;;;;;-1.98;65.05;94813.94;6138681;23;20004;-79
2022/12/21 01:30:48;;;;;;;39.05;13.35;;;;;;;-2.01;65.07;94809.16;6164776;23;19998;-79
2022/12/21 01:33:18;;;;;;;33.80;13.13;;;;;;;-2.03;65.35;94809.38;6164493;23;20314;-80
2022/12/21 01:35:44;;;;;;;33.78;14.60;;;;;;;-2.05;65.40;94805.38;6164388;23;20318;-80
2022/12/21 01:38:11;;;;;;;42.25;14.88;;;;;;;-2.06;65.48;94804.53;6164806;23;19993;-79
2022/12/21 01:40:37;;;;;;;29.02;13.93;;;;;;;-2.08;65.29;94797.94;6164602;23;20013;-80
2022/12/21 01:43:18;;;;;;;30.27;13.70;;;;;;;-2.08;65.61;94800.56;6164499;23;20001;-80
2022/12/21 01:45:48;;;;;;;32.53;12.48;;;;;;;-2.07;65.48;94794.34;6138564;23;20003;-80
2022/12/21 01:48:17;;;;;;;28.50;12.70;;;;;;;-2.05;65.36;94797.53;6164366;23;20002;-80
2022/12/21 01:50:48;;;;;;;36.80;12.73;;;;;;;-2.07;65.32;94789.09;6164653;23;20292;-80
2022/12/21 01:53:50;;;;;;;30.85;12.07;;;;;;;-2.11;65.67;94782.69;6164487;23;20024;-80
2022/12/21 01:56:21;;;;;;;36.17;13.82;;;;;;;-2.12;65.58;94781.09;6158493;23;20002;-80
2022/12/21 01:58:46;;;;;;;37.03;11.93;;;;;;;-2.14;65.82;94772.66;6164297;23;20020;-79
2022/12/21 02:01:12;;;;;;;35.60;12.50;;;;;;;-2.10;65.52;94777.25;6164350;23;20005;-80
2022/12/21 02:03:43;;;;;;;30.65;13.07;;;;;;;-2.13;65.85;94769.06;6164695;23;20016;-80
2022/12/21 02:06:13;;;;;;;30.50;13.38;;;;;;;-2.17;66.11;94771.28;6164797;23;20089;-80
2022/12/21 02:08:40;;;;;;;29.95;13.40;;;;;;;-2.17;66.12;94771.28;6166461;23;20303;-80
2022/12/21 02:11:06;;;;;;;29.23;11.93;;;;;;;-2.18;65.89;94779.31;6166446;23;19997;-83
2022/12/21 02:13:32;;;;;;;40.10;11.55;;;;;;;-2.19;66.02;94775.13;6166626;23;20044;-83
2022/12/21 02:16:00;;;;;;;29.73;12.60;;;;;;;-2.18;66.45;94771.47;6166408;23;20009;-83
2022/12/21 02:18:59;;;;;;;34.80;13.60;;;;;;;-2.19;66.66;94770.69;6166217;23;20030;-83
2022/12/21 02:21:29;;;;;;;36.88;14.18;;;;;;;-2.24;66.58;94771.31;6166252;23;20017;-83
2022/12/21 02:24:14;;;;;;;31.80;13.77;;;;;;;-2.23;66.62;94767.69;6166327;23;20011;-83
2022/12/21 02:27:13;;;;;;;36.85;16.48;;;;;;;-2.22;66.73;94758.84;6166617;23;20001;-84
2022/12/21 02:29:57;;;;;;;34.38;14.07;;;;;;;-2.26;67.04;94755.06;6166642;23;20002;-83
2022/12/21 02:32:52;;;;;;;33.83;14.77;;;;;;;-2.27;67.29;94761.28;6140220;23;19993;-83
2022/12/21 02:35:37;;;;;;;32.65;12.95;;;;;;;-2.27;67.21;94761.28;6166421;23;20017;-83
2022/12/21 02:38:35;;;;;;;37.33;14.45;;;;;;;-2.27;66.96;94756.06;6091684;23;20005;-83
2022/12/21 02:41:04;;;;;;;33.78;14.73;;;;;;;-2.26;66.86;94759.47;6085743;23;20001;-83
2022/12/21 02:44:15;;;;;;;34.13;13.95;;;;;;;-2.29;66.59;94760.69;6166228;23;20025;-83
2022/12/21 02:47:02;;;;;;;36.28;13.98;;;;;;;-2.30;66.74;94766.94;6166233;23;20004;-81
2022/12/21 02:49:37;;;;;;;37.00;14.30;;;;;;;-2.32;66.96;94761.13;6166182;23;20005;-84
2022/12/21 02:52:34;;;;;;;37.88;13.88;;;;;;;-2.35;67.06;94763.34;6166120;23;20013;-84
2022/12/21 02:55:00;;;;;;;33.35;14.20;;;;;;;-2.36;66.99;94754.72;6166047;23;20001;-83
2022/12/21 02:57:31;;;;;;;36.40;14.52;;;;;;;-2.37;67.43;94752.31;6165883;23;20025;-83
2022/12/21 02:59:57;;;;;;;28.35;12.45;;;;;;;-2.35;67.06;94753.72;6166265;23;20352;-84
2022/12/21 03:02:31;;;;;;;31.58;13.32;;;;;;;-2.38;67.43;94753.31;6165930;23;20005;-83
2022/12/21 03:05:12;;;;;;;30.55;12.73;;;;;;;-2.40;67.53;94756.16;6166062;23;20001;-82
2022/12/21 03:07:57;;;;;;;33.75;13.18;;;;;;;-2.39;67.27;94747.31;6166097;23;20010;-83
2022/12/21 03:10:44;;;;;;;29.73;11.90;;;;;;;-2.38;67.50;94751.53;6139841;23;20009;-83
2022/12/21 03:13:28;;;;;;;35.05;12.82;;;;;;;-2.40;67.36;94745.72;6166151;23;19997;-83
2022/12/21 03:16:22;;;;;;;30.80;13.30;;;;;;;-2.42;67.56;94740.69;6139817;23;19997;-83
2022/12/21 03:19:07;;;;;;;31.80;12.90;;;;;;;-2.48;67.24;94735.53;6165858;23;20002;-83
2022/12/21 03:21:42;;;;;;;29.52;12.48;;;;;;;-2.46;67.14;94736.13;6165776;23;20006;-83
2022/12/21 03:24:36;;;;;;;27.98;11.80;;;;;;;-2.44;66.96;94734.09;6165836;23;20005;-83
2022/12/21 03:27:12;;;;;;;33.67;11.40;;;;;;;-2.46;66.85;94736.13;6161804;23;20052;-83
2022/12/21 03:29:47;;;;;;;28.02;12.13;;;;;;;-2.46;66.86;94733.50;6139870;23;20013;-83
2022/12/21 03:32:20;;;;;;;25.17;10.70;;;;;;;-2.46;67.02;94720.44;6166081;23;20001;-83
2022/12/21 03:34:49;;;;;;;24.65;11.23;;;;;;;-2.50;66.99;94716.66;6165636;23;20173;-83
2022/12/21 03:37:21;;;;;;;27.33;11.85;;;;;;;-2.48;67.10;94705.00;6165795;23;20001;-83
2022/12/21 03:39:56;;;;;;;25.02;10.85;;;;;;;-2.47;66.84;94705.78;6165986;23;19997;-83
2022/12/21 03:42:26;;;;;;;25.98;10.68;;;;;;;-2.46;66.96;94705.59;6165497;23;19997;-82
2022/12/21 03:44:59;;;;;;;27.65;10.90;;;;;;;-2.46;66.99;94708.19;6165616;23;20028;-82
2022/12/21 03:47:33;;;;;;;27.73;11.82;;;;;;;-2.48;66.75;94696.38;6165512;23;20001;-82
2022/12/21 03:50:06;;;;;;;35.95;11.77;;;;;;;-2.48;67.12;94696.38;6165654;23;20203;-82
2022/12/21 03:53:20;;;;;;;32.22;11.45;;;;;;;-2.45;67.17;94693.31;6165425;23;20048;-81
2022/12/21 03:55:49;;;;;;;27.83;12.73;;;;;;;-2.49;67.21;94687.72;6132166;23;20010;-83
2022/12/21 03:58:15;;;;;;;35.95;12.70;;;;;;;-2.50;67.33;94690.56;6139443;23;20203;-82
2022/12/21 04:00:49;;;;;;;25.80;11.80;;;;;;;-2.51;67.04;94681.91;6165557;23;20227;-83
2022/12/21 04:03:25;;;;;;;30.05;11.98;;;;;;;-2.49;67.20;94689.53;6165491;23;20001;-83
2022/12/21 04:05:55;;;;;;;27.73;13.05;;;;;;;-2.49;67.14;94679.88;6165261;23;19998;-83
2022/12/21 04:08:24;;;;;;;29.88;12.68;;;;;;;-2.48;66.83;94685.94;6165444;23;20009;-82
2022/12/21 04:10:49;;;;;;;32.00;13.32;;;;;;;-2.49;66.93;94684.31;6139373;23;19989;-82
2022/12/21 04:13:15;;;;;;;25.02;13.23;;;;;;;-2.47;67.21;94687.50;6165427;23;20065;-80
2022/12/21 04:21:08;;;;;;;31.88;14.05;;;;;;;-2.42;66.78;94679.88;6165446;23;20314;-80
2022/12/21 04:29:01;;;;;;;33.45;13.32;;;;;;;-2.44;67.15;94671.44;6164957;23;20109;-80
2022/12/21 04:31:27;;;;;;;25.98;13.25;;;;;;;-2.44;66.89;94663.59;6138996;23;19993;-79
2022/12/21 04:33:52;;;;;;;42.67;14.85;;;;;;;-2.42;66.86;94670.22;6165257;23;20291;-79
2022/12/21 04:39:02;;;;;;;41.33;16.08;;;;;;;-2.45;67.18;94670.63;6165102;23;20059;-79
2022/12/21 04:41:27;;;;;;;34.05;15.48;;;;;;;-2.48;67.39;94660.63;6164938;23;19998;-79
2022/12/21 04:43:52;;;;;;;36.50;15.27;;;;;;;-2.51;67.58;94665.44;6164781;23;19997;-80
2022/12/21 04:46:18;;;;;;;33.03;14.00;;;;;;;-2.52;67.58;94661.25;6164929;23;20200;-79
2022/12/21 04:48:44;;;;;;;36.75;14.30;;;;;;;-2.53;67.60;94665.66;6164920;23;20001;-79
2022/12/21 04:51:14;;;;;;;27.52;13.15;;;;;;;-2.54;67.54;94655.44;6165093;23;19997;-80
2022/12/21 04:53:40;;;;;;;31.80;14.38;;;;;;;-2.52;67.73;94661.25;6139058;23;20001;-80
2022/12/21 04:56:06;;;;;;;34.20;14.77;;;;;;;-2.52;67.85;94656.03;6165087;23;19997;-80
2022/12/21 04:58:31;;;;;;;36.50;14.77;;;;;;;-2.52;67.62;94658.66;6138468;23;20296;-82
2022/12/21 05:00:58;;;;;;;32.88;15.45;;;;;;;-2.51;67.84;94652.41;6138715;23;20001;-82
2022/12/21 05:03:23;;;;;;;34.90;14.38;;;;;;;-2.51;67.85;94662.84;6164880;23;20009;-82
2022/12/21 05:05:49;;;;;;;29.00;13.52;;;;;;;-2.50;67.59;94654.81;6164683;23;20287;-82
2022/12/21 05:08:14;;;;;;;32.28;14.32;;;;;;;-2.48;67.41;94667.66;6164970;23;20040;-82
2022/12/21 05:10:40;;;;;;;33.97;14.32;;;;;;;-2.46;67.41;94655.19;6164948;23;20096;-82
2022/12/21 05:13:05;;;;;;;33.15;13.68;;;;;;;-2.48;67.25;94659.81;6164696;23;20056;-82
2022/12/21 05:15:34;;;;;;;33.85;13.70;;;;;;;-2.55;67.01;94661.66;6138771;23;20004;-82
2022/12/21 05:18:00;;;;;;;30.80;13.98;;;;;;;-2.54;67.78;94671.09;6164705;23;20064;-82
2022/12/21 05:20:25;;;;;;;41.03;15.50;;;;;;;-2.59;67.82;94663.09;6164621;23;20002;-82
2022/12/21 05:22:51;;;;;;;37.13;16.02;;;;;;;-2.66;68.40;94657.94;6164731;23;20000;-82
2022/12/21 05:25:16;;;;;;;36.15;15.75;;;;;;;-2.65;68.74;94654.28;6164673;23;19997;-82
2022/12/21 05:27:42;;;;;;;43.83;14.80;;;;;;;-2.66;68.65;94655.31;6164625;23;20200;-82
2022/12/21 05:30:07;;;;;;;36.70;14.20;;;;;;;-2.65;68.31;94667.34;6164557;23;20063;-83
2022/12/21 05:32:33;;;;;;;36.33;15.88;;;;;;;-2.62;68.42;94664.31;6164518;23;20001;-82
2022/12/21 05:34:58;;;;;;;36.63;16.35;;;;;;;-2.62;68.63;94662.50;6164728;23;20016;-82
2022/12/21 05:37:26;;;;;;;39.17;14.52;;;;;;;-2.59;68.73;94665.72;6164728;23;20006;-83
2022/12/21 05:39:51;;;;;;;43.78;15.02;;;;;;;-2.57;68.52;94661.06;6164631;23;20059;-82
2022/12/21 05:42:16;;;;;;;39.03;18.70;;;;;;;-2.60;68.84;94662.31;6164107;23;20292;-83
2022/12/21 05:44:42;;;;;;;40.90;17.42;;;;;;;-2.58;68.81;94659.50;6164549;23;19998;-82
2022/12/21 05:47:07;;;;;;;43.78;20.25;;;;;;;-2.58;68.75;94655.06;6164081;23;20028;-83
2022/12/21 05:49:33;;;;;;;55.60;20.55;;;;;;;-2.59;69.03;94657.88;6164540;23;20004;-81
2022/12/21 05:51:58;;;;;;;44.60;19.80;;;;;;;-2.61;69.21;94658.09;6138390;23;20009;-80
2022/12/21 05:54:24;;;;;;;53.95;19.15;;;;;;;-2.58;68.84;94660.28;6164630;23;20060;-80
2022/12/21 05:56:49;;;;;;;48.55;21.65;;;;;;;-2.55;68.63;94662.47;6164409;23;20008;-81
2022/12/21 05:59:15;;;;;;;50.53;20.38;;;;;;;-2.55;68.67;94653.84;6138511;23;20005;-80
2022/12/21 06:01:41;;;;;;;68.20;22.60;;;;;;;-2.57;68.87;94655.84;6164517;23;20060;-80
2022/12/21 06:04:06;;;;;;;51.15;21.42;;;;;;;-2.59;69.20;94661.28;6138289;23;20172;-81
2022/12/21 06:06:32;;;;;;;66.55;27.90;;;;;;;-2.60;69.36;94651.06;6138148;23;20590;-81
2022/12/21 06:08:57;;;;;;;60.00;25.45;;;;;;;-2.55;68.90;94654.63;6164312;23;20001;-81
2022/12/21 06:11:24;;;;;;;59.95;24.85;;;;;;;-2.53;68.89;94655.22;6164371;23;20001;-83
2022/12/21 06:13:50;;;;;;;47.47;21.83;;;;;;;-2.52;68.74;94663.88;6164567;23;20032;-83
2022/12/21 06:16:24;;;;;;;50.08;19.40;;;;;;;-2.47;68.89;94656.19;6164269;23;20001;-82
2022/12/21 06:18:50;;;;;;;60.10;22.55;;;;;;;-2.41;68.75;94650.13;6138451;23;20064;-82
2022/12/21 06:21:16;;;;;;;56.25;20.65;;;;;;;-2.38;68.46;94648.88;6164426;23;20037;-82
2022/12/21 06:23:43;;;;;;;63.65;23.83;;;;;;;-2.37;68.66;94646.06;6164717;23;20001;-82
2022/12/21 06:26:12;;;;;;;84.93;33.08;;;;;;;-2.31;68.34;94640.00;6164866;23;20196;-82
2022/12/21 06:28:37;;;;;;;96.30;36.60;;;;;;;-2.30;68.37;94641.59;6164457;23;19997;-82
2022/12/21 06:31:11;;;;;;;133.48;47.47;;;;;;;-2.23;68.18;94631.88;6164183;23;20185;-82
2022/12/21 06:33:37;;;;;;;116.03;41.85;;;;;;;-2.16;67.97;94641.47;6164405;23;20107;-81
2022/12/21 06:36:04;;;;;;;94.30;35.85;;;;;;;-2.09;67.97;94643.03;6164287;23;20005;-82
2022/12/21 06:38:30;;;;;;;77.65;31.10;;;;;;;-2.00;68.05;94650.59;6164243;23;20228;-84
2022/12/21 06:41:06;;;;;;;92.85;33.47;;;;;;;-1.94;67.86;94639.28;6164472;23;20009;-83
2022/12/21 06:43:32;;;;;;;96.60;34.72;;;;;;;-1.91;67.85;94651.91;6138176;23;20060;-83
2022/12/21 06:46:01;;;;;;;70.78;27.75;;;;;;;-1.84;67.50;94637.75;6164256;23;20131;-83
2022/12/21 06:48:27;;;;;;;66.57;25.10;;;;;;;-1.74;67.56;94642.47;6164449;23;20002;-88
2022/12/21 06:50:58;;;;;;;64.32;24.95;;;;;;;-1.68;67.81;94649.47;6141160;23;20065;-85
2022/12/21 06:53:26;;;;;;;60.72;23.17;;;;;;;-1.65;67.79;94648.22;6165377;23;20200;-78
2022/12/21 06:56:22;;;;;;;77.43;26.73;;;;;;;-1.59;67.25;94663.03;6166465;23;20060;-83
2022/12/21 06:58:49;;;;;;;94.30;33.95;;;;;;;-1.57;66.25;94666.22;6163054;23;20005;-82
2022/12/21 07:01:18;;;;;;;79.38;29.42;;;;;;;-1.49;65.99;94657.31;6165819;23;20005;-82
2022/12/21 07:03:44;;;;;;;91.25;35.92;;;;;;;-1.45;65.60;94648.78;6166058;23;20060;-81
2022/12/21 07:06:11;;;;;;;117.72;39.80;;;;;;;-1.47;66.06;94653.44;6166013;23;20021;-81
2022/12/21 07:08:37;;;;;;;128.35;45.70;;;;;;;-1.37;66.19;94660.00;6140003;23;20004;-82
2022/12/21 07:11:06;;;;;;;108.55;36.72;;;;;;;-1.42;67.16;94666.69;6165084;23;19997;-81
2022/12/21 07:13:34;;;;;;;86.55;33.00;;;;;;;-1.37;67.16;94665.22;6165468;23;19993;-81
2022/12/21 07:16:00;;;;;;;84.40;33.08;;;;;;;-1.33;67.29;94679.47;6165707;23;20024;-82
2022/12/21 07:18:26;;;;;;;65.78;28.75;;;;;;;-1.34;67.40;94683.09;6165625;23;19998;-82
2022/12/21 07:21:03;;;;;;;60.88;27.15;;;;;;;-1.34;67.54;94670.81;6165308;23;20017;-81
2022/12/21 07:23:30;;;;;;;61.55;25.48;;;;;;;-1.32;67.37;94674.03;6165774;23;20001;-82
2022/12/21 07:25:56;;;;;;;60.95;26.60;;;;;;;-1.30;67.36;94668.59;6165833;23;20040;-82
2022/12/21 07:28:22;;;;;;;68.18;26.73;;;;;;;-1.24;67.63;94676.34;6165578;23;20086;-82
2022/12/21 07:30:48;;;;;;;83.97;31.88;;;;;;;-1.21;67.80;94675.09;6165352;23;20049;-82
2022/12/21 07:33:16;;;;;;;74.80;29.30;;;;;;;-1.19;66.79;94667.81;6165321;23;20066;-81
2022/12/21 07:35:42;;;;;;;80.82;29.90;;;;;;;-1.12;66.63;94665.13;6165300;23;20084;-81
2022/12/21 07:38:08;;;;;;;84.35;28.33;;;;;;;-1.07;66.81;94650.38;6165618;23;20301;-81
2022/12/21 07:40:34;;;;;;;67.32;26.75;;;;;;;-1.03;66.52;94654.16;6165047;23;20040;-80
2022/12/21 07:42:59;;;;;;;75.43;29.35;;;;;;;-0.98;66.42;94647.44;6165353;23;20056;-79
2022/12/21 07:45:25;;;;;;;72.30;27.45;;;;;;;-0.90;66.53;94644.53;6165178;23;20002;-79
2022/12/21 07:47:50;;;;;;;73.15;28.25;;;;;;;-0.84;66.32;94647.03;6164085;23;20001;-79
2022/12/21 07:50:16;;;;;;;56.88;26.83;;;;;;;-0.73;65.79;94650.75;6164763;23;19993;-80
2022/12/21 07:52:41;;;;;;;79.32;30.63;;;;;;;-0.70;65.93;94639.00;6164454;23;20001;-80
2022/12/21 07:55:07;;;;;;;74.53;31.85;;;;;;;-0.68;66.12;94648.22;6164981;23;19994;-79
2022/12/21 07:57:33;;;;;;;75.40;30.70;;;;;;;-0.64;66.26;94645.97;6165447;23;20067;-78
2022/12/21 07:59:58;;;;;;;84.72;35.95;;;;;;;-0.62;66.09;94651.78;6165090;23;20005;-79
2022/12/21 08:02:24;;;;;;;74.65;31.55;;;;;;;-0.61;65.86;94648.94;6165009;23;20092;-79
2022/12/21 08:04:49;;;;;;;65.95;26.17;;;;;;;-0.60;66.06;94654.97;6164961;23;20004;-79
2022/12/21 08:07:15;;;;;;;57.72;25.80;;;;;;;-0.55;66.20;94656.91;6165336;23;20065;-80
2022/12/21 08:09:40;;;;;;;61.20;25.85;;;;;;;-0.56;65.99;94650.91;6165328;23;20317;-79
2022/12/21 08:12:06;;;;;;;72.28;26.83;;;;;;;-0.55;65.80;94656.91;6165126;23;20028;-79
2022/12/21 08:14:31;;;;;;;65.30;27.30;;;;;;;-0.62;65.45;94641.31;6165373;23;20006;-79
2022/12/21 08:16:56;;;;;;;71.75;28.13;;;;;;;-0.60;65.75;94649.75;6165210;23;20055;-79
2022/12/21 08:19:22;;;;;;;61.78;26.15;;;;;;;-0.55;65.95;94647.25;6165239;23;20060;-79
2022/12/21 08:21:48;;;;;;;65.05;26.75;;;;;;;-0.50;65.98;94639.53;6165109;23;20002;-81
2022/12/21 08:24:13;;;;;;;64.15;26.65;;;;;;;-0.62;65.46;94631.63;6165528;23;20172;-81
2022/12/21 08:26:39;;;;;;;65.57;27.55;;;;;;;-0.49;65.44;94627.22;6165248;23;20242;-81
2022/12/21 08:29:05;;;;;;;64.80;26.08;;;;;;;-0.45;65.26;94621.31;6138941;23;19997;-81
2022/12/21 08:31:30;;;;;;;63.78;27.05;;;;;;;-0.35;65.54;94625.97;6164914;23;20008;-81
2022/12/21 08:33:56;;;;;;;64.93;26.20;;;;;;;-0.25;65.54;94623.59;6165294;23;19997;-79
2022/12/21 08:36:23;;;;;;;68.80;27.13;;;;;;;-0.09;65.61;94613.50;6139070;23;20009;-80
2022/12/21 08:38:50;;;;;;;58.13;27.08;;;;;;;0.05;64.64;94614.06;6164752;23;20056;-81
2022/12/21 08:41:16;;;;;;;60.70;25.50;;;;;;;0.16;64.27;94611.44;6164593;23;20005;-80
2022/12/21 08:43:41;;;;;;;60.60;24.75;;;;;;;0.28;64.01;94605.38;6164862;23;20067;-81
2022/12/21 08:46:09;;;;;;;62.05;22.92;;;;;;;0.40;63.62;94599.06;6164806;23;20005;-80
2022/12/21 08:48:35;;;;;;;53.70;25.27;;;;;;;0.56;63.20;94594.94;6164751;23;20001;-80
2022/12/21 08:51:02;;;;;;;54.67;24.48;;;;;;;0.71;62.61;94591.03;6139133;23;20004;-81
2022/12/21 08:53:28;;;;;;;63.50;24.58;;;;;;;0.75;62.29;94587.72;6165014;23;20027;-81
2022/12/21 08:55:54;;;;;;;51.05;21.33;;;;;;;0.72;61.98;94588.16;6164883;23;19998;-81
2022/12/21 08:58:20;;;;;;;62.35;23.88;;;;;;;0.80;61.98;94577.31;6164696;23;20005;-81
2022/12/21 09:00:46;;;;;;;46.78;21.33;;;;;;;0.84;61.50;94582.88;6164987;23;19998;-81
2022/12/21 09:03:12;;;;;;;50.15;23.35;;;;;;;0.89;61.50;94582.97;6165136;23;20029;-81
2022/12/21 09:05:38;;;;;;;58.13;22.13;;;;;;;0.93;61.01;94572.81;6164807;23;20327;-81
2022/12/21 09:08:04;;;;;;;49.05;18.92;;;;;;;0.96;60.46;94583.63;6164825;23;20016;-81
2022/12/21 09:10:31;;;;;;;54.33;23.63;;;;;;;1.10;59.54;94571.03;6164797;23;20005;-79
2022/12/21 09:13:03;;;;;;;46.00;20.23;;;;;;;1.13;58.62;94567.13;6164913;23;20002;-80
2022/12/21 09:15:28;;;;;;;53.55;20.08;;;;;;;1.18;58.44;94562.75;6164860;23;20052;-81
2022/12/21 09:17:54;;;;;;;42.60;18.33;;;;;;;1.22;58.20;94570.16;6139041;23;20005;-78
2022/12/21 09:20:20;;;;;;;37.95;18.25;;;;;;;1.16;58.57;94553.50;6164561;23;20005;-78
2022/12/21 09:22:45;;;;;;;44.92;18.17;;;;;;;1.12;59.09;94549.75;6164635;23;20056;-80
2022/12/21 09:25:11;;;;;;;47.92;20.73;;;;;;;1.22;58.71;94543.88;6164799;23;20002;-81
2022/12/21 09:27:38;;;;;;;38.85;17.83;;;;;;;1.33;58.50;94541.19;6164879;23;19997;-82
2022/12/21 09:30:04;;;;;;;51.15;19.85;;;;;;;1.38;58.60;94533.41;6164837;23;20323;-84
2022/12/21 09:32:29;;;;;;;49.83;20.52;;;;;;;1.48;58.37;94532.75;6164591;23;20000;-83
2022/12/21 09:34:54;;;;;;;44.60;20.98;;;;;;;1.59;58.21;94520.59;6164436;23;19997;-82
2022/12/21 09:37:20;;;;;;;48.33;20.92;;;;;;;1.65;57.53;94527.50;6164329;23;20005;-83
2022/12/21 09:39:46;;;;;;;48.30;21.10;;;;;;;1.71;57.33;94515.22;6164655;23;20048;-82
2022/12/21 09:42:26;;;;;;;43.75;19.48;;;;;;;1.72;56.98;94512.34;6164867;23;20296;-82
2022/12/21 09:45:12;;;;;;;39.30;19.02;;;;;;;1.66;56.94;94517.78;6164668;23;20001;-83
2022/12/21 09:47:47;;;;;;;41.65;16.33;;;;;;;1.72;56.85;94516.81;6164499;23;20048;-82
2022/12/21 09:50:44;;;;;;;41.03;15.85;;;;;;;1.74;56.44;94499.75;6164906;23;20069;-82
2022/12/21 09:53:25;;;;;;;36.10;15.98;;;;;;;1.83;56.17;94507.25;6136059;23;20270;-82
2022/12/21 09:55:54;;;;;;;44.70;17.98;;;;;;;1.94;56.39;94507.13;6164387;23;20048;-82
2022/12/21 09:58:25;;;;;;;42.33;18.70;;;;;;;2.05;56.12;94494.13;6164607;23;20330;-81
2022/12/21 10:01:00;;;;;;;37.97;15.88;;;;;;;2.12;55.24;94498.16;6164315;23;20061;-83
2022/12/21 10:03:44;;;;;;;37.08;16.40;;;;;;;2.08;54.87;94496.28;6164513;23;20004;-82
2022/12/21 10:06:29;;;;;;;33.53;17.48;;;;;;;2.08;54.72;94491.03;6164608;23;20208;-82
2022/12/21 10:09:03;;;;;;;34.55;18.15;;;;;;;2.15;54.76;94486.34;6164475;23;20048;-82
2022/12/21 10:11:50;;;;;;;43.78;18.65;;;;;;;2.27;54.74;94480.97;6164649;23;20005;-82
2022/12/21 10:14:52;;;;;;;44.85;19.27;;;;;;;2.36;54.82;94479.50;6164191;23;20009;-83
2022/12/21 10:17:23;;;;;;;49.95;21.02;;;;;;;2.47;54.30;94460.16;6164528;23;20001;-82
2022/12/21 10:20:08;;;;;;;46.03;20.87;;;;;;;2.57;54.46;94455.00;6164409;23;20032;-83
2022/12/21 10:22:42;;;;;;;51.67;19.98;;;;;;;2.66;54.42;94457.97;6138484;23;20269;-83
2022/12/21 10:25:38;;;;;;;37.53;17.40;;;;;;;2.75;54.14;94439.91;6164239;23;20021;-83
2022/12/21 10:28:21;;;;;;;35.78;17.52;;;;;;;2.90;53.92;94437.41;6165159;23;20013;-81
2022/12/21 10:30:59;;;;;;;35.05;17.77;;;;;;;2.95;52.92;94434.81;6166249;23;19993;-83
2022/12/21 10:33:24;;;;;;;45.03;17.48;;;;;;;3.05;53.19;94428.81;6166293;23;19998;-82
2022/12/21 10:35:54;;;;;;;44.67;19.17;;;;;;;3.18;53.00;94427.63;6166279;23;20234;-82
2022/12/21 10:38:20;;;;;;;48.10;20.48;;;;;;;3.32;52.44;94423.50;6166125;23;20260;-82
2022/12/21 10:40:54;;;;;;;51.42;18.75;;;;;;;3.40;52.61;94430.94;6166582;23;20057;-87
2022/12/21 10:43:20;;;;;;;46.20;16.88;;;;;;;3.46;52.00;94429.13;6166864;23;20019;-86
2022/12/21 10:45:46;;;;;;;45.60;16.65;;;;;;;3.56;51.23;94412.56;6166521;23;19997;-87
2022/12/21 10:48:11;;;;;;;45.42;17.75;;;;;;;3.69;50.19;94412.13;6166986;23;20001;-85
2022/12/21 10:51:19;;;;;;;45.05;17.88;;;;;;;3.81;50.02;94415.34;6166589;23;20052;-84
2022/12/21 10:53:59;;;;;;;33.90;14.75;;;;;;;3.89;50.41;94414.06;6120046;23;20005;-85
2022/12/21 10:56:26;;;;;;;44.20;15.57;;;;;;;4.03;50.21;94417.03;6166412;23;20024;-84
2022/12/21 10:58:54;;;;;;;32.78;15.02;;;;;;;4.16;49.33;94406.00;6140149;23;20033;-84
2022/12/21 11:01:29;;;;;;;35.97;14.07;;;;;;;4.27;49.18;94401.53;6166316;23;20070;-85
2022/12/21 11:04:10;;;;;;;34.22;13.90;;;;;;;4.40;49.19;94401.03;6140240;23;20012;-86
2022/12/21 11:06:36;;;;;;;33.83;14.32;;;;;;;4.50;48.67;94395.00;6166707;23;20035;-84
2022/12/21 11:09:02;;;;;;;32.22;13.65;;;;;;;4.59;48.50;94398.69;6166879;23;20005;-87
2022/12/21 11:11:33;;;;;;;38.28;13.25;;;;;;;4.70;48.35;94385.50;6166118;23;20190;-86
2022/12/21 11:14:16;;;;;;;34.20;15.23;;;;;;;4.78;47.69;94390.25;6166408;23;20001;-86
2022/12/21 11:16:43;;;;;;;33.40;14.95;;;;;;;4.85;47.78;94382.88;6166503;23;20004;-87
2022/12/21 11:19:16;;;;;;;35.13;14.38;;;;;;;4.95;47.55;94374.19;6166289;23;20005;-87
2022/12/21 11:21:55;;;;;;;32.63;13.88;;;;;;;5.05;47.23;94376.81;6166289;23;20000;-87
2022/12/21 11:24:37;;;;;;;45.17;16.10;;;;;;;5.17;47.09;94373.88;6166219;23;20072;-87
2022/12/21 11:27:12;;;;;;;29.83;14.75;;;;;;;5.20;46.74;94360.94;6166440;23;20096;-87
2022/12/21 11:29:46;;;;;;;34.78;14.93;;;;;;;5.19;46.57;94366.47;6166255;23;20338;-88
2022/12/21 11:32:13;;;;;;;33.30;16.30;;;;;;;5.32;46.84;94358.00;6165810;23;20010;-87
2022/12/21 11:34:48;;;;;;;38.72;16.10;;;;;;;5.31;46.14;94353.78;6139912;23;20068;-88
2022/12/21 11:37:34;;;;;;;44.53;16.27;;;;;;;5.37;45.64;94360.66;6165981;23;20028;-87
2022/12/21 11:40:22;;;;;;;42.10;15.60;;;;;;;5.38;45.93;94356.16;6166375;23;20004;-87
2022/12/21 11:43:00;;;;;;;37.88;16.30;;;;;;;5.46;46.39;94352.97;6166257;23;20028;-87
2022/12/21 11:45:44;;;;;;;40.05;16.58;;;;;;;5.54;46.34;94357.69;6166826;23;20001;-87
2022/12/21 11:48:27;;;;;;;36.72;17.05;;;;;;;5.62;45.88;94348.44;6166163;23;20006;-88